sensor_id;sensor_type;location;lat;lon;timestamp;temperature;humidity
74364;DHT22;62797;49.740;10.154;2023-06-10T00:00:46;16.00;56.50
74364;DHT22;62797;49.740;10.154;2023-06-10T00:03:12;15.80;57.20
74364;DHT22;62797;49.740;10.154;2023-06-10T00:05:38;15.80;56.60
74364;DHT22;62797;49.740;10.154;2023-06-10T00:08:07;15.80;56.60
74364;DHT22;62797;49.740;10.154;2023-06-10T00:10:36;15.80;57.80
74364;DHT22;62797;49.740;10.154;2023-06-10T00:13:03;15.80;57.70
74364;DHT22;62797;49.740;10.154;2023-06-10T00:15:29;15.80;56.80
74364;DHT22;62797;49.740;10.154;2023-06-10T00:17:55;15.70;56.60
74364;DHT22;62797;49.740;10.154;2023-06-10T00:20:21;15.70;57.00
74364;DHT22;62797;49.740;10.154;2023-06-10T00:22:51;15.60;57.10
74364;DHT22;62797;49.740;10.154;2023-06-10T00:25:18;15.60;58.50
74364;DHT22;62797;49.740;10.154;2023-06-10T00:27:44;15.60;58.00
74364;DHT22;62797;49.740;10.154;2023-06-10T00:30:10;15.50;57.80
74364;DHT22;62797;49.740;10.154;2023-06-10T00:32:37;15.40;58.80
74364;DHT22;62797;49.740;10.154;2023-06-10T00:35:03;15.40;59.90
74364;DHT22;62797;49.740;10.154;2023-06-10T00:37:31;15.30;60.80
74364;DHT22;62797;49.740;10.154;2023-06-10T00:39:57;15.30;60.10
74364;DHT22;62797;49.740;10.154;2023-06-10T00:42:24;15.30;61.30
74364;DHT22;62797;49.740;10.154;2023-06-10T00:44:50;15.30;61.30
74364;DHT22;62797;49.740;10.154;2023-06-10T00:47:17;15.20;61.80
74364;DHT22;62797;49.740;10.154;2023-06-10T00:49:43;15.20;61.00
74364;DHT22;62797;49.740;10.154;2023-06-10T00:52:10;15.20;61.70
74364;DHT22;62797;49.740;10.154;2023-06-10T00:54:37;15.20;61.80
74364;DHT22;62797;49.740;10.154;2023-06-10T00:57:04;15.20;60.50
74364;DHT22;62797;49.740;10.154;2023-06-10T00:59:29;15.20;59.30
74364;DHT22;62797;49.740;10.154;2023-06-10T01:01:56;15.20;61.30
74364;DHT22;62797;49.740;10.154;2023-06-10T01:04:22;15.20;61.40
74364;DHT22;62797;49.740;10.154;2023-06-10T01:07:39;15.10;62.30
74364;DHT22;62797;49.740;10.154;2023-06-10T01:10:02;15.10;60.20
74364;DHT22;62797;49.740;10.154;2023-06-10T01:12:43;15.10;60.20
74364;DHT22;62797;49.740;10.154;2023-06-10T01:15:17;15.10;60.80
74364;DHT22;62797;49.740;10.154;2023-06-10T01:20:24;15.00;61.20
74364;DHT22;62797;49.740;10.154;2023-06-10T01:22:56;14.90;61.40
74364;DHT22;62797;49.740;10.154;2023-06-10T01:25:24;14.90;61.80
74364;DHT22;62797;49.740;10.154;2023-06-10T01:28:19;14.90;60.90
74364;DHT22;62797;49.740;10.154;2023-06-10T01:31:09;14.90;62.00
74364;DHT22;62797;49.740;10.154;2023-06-10T01:33:42;15.00;59.80
74364;DHT22;62797;49.740;10.154;2023-06-10T01:36:09;14.90;61.40
74364;DHT22;62797;49.740;10.154;2023-06-10T01:38:40;14.90;61.70
74364;DHT22;62797;49.740;10.154;2023-06-10T01:41:08;14.90;60.70
74364;DHT22;62797;49.740;10.154;2023-06-10T01:43:37;14.90;60.60
74364;DHT22;62797;49.740;10.154;2023-06-10T01:46:02;14.90;60.10
74364;DHT22;62797;49.740;10.154;2023-06-10T01:48:29;14.80;60.10
74364;DHT22;62797;49.740;10.154;2023-06-10T01:50:54;14.80;61.40
74364;DHT22;62797;49.740;10.154;2023-06-10T01:53:23;14.70;62.30
74364;DHT22;62797;49.740;10.154;2023-06-10T01:55:49;14.60;61.60
74364;DHT22;62797;49.740;10.154;2023-06-10T01:58:16;14.70;62.00
74364;DHT22;62797;49.740;10.154;2023-06-10T02:00:42;14.70;61.50
74364;DHT22;62797;49.740;10.154;2023-06-10T02:03:08;14.70;60.00
74364;DHT22;62797;49.740;10.154;2023-06-10T02:05:34;14.70;61.10
74364;DHT22;62797;49.740;10.154;2023-06-10T02:07:59;14.60;61.50
74364;DHT22;62797;49.740;10.154;2023-06-10T02:10:26;14.60;61.00
74364;DHT22;62797;49.740;10.154;2023-06-10T02:12:51;14.60;61.20
74364;DHT22;62797;49.740;10.154;2023-06-10T02:15:18;14.50;61.60
74364;DHT22;62797;49.740;10.154;2023-06-10T02:17:46;14.50;61.30
74364;DHT22;62797;49.740;10.154;2023-06-10T02:20:12;14.50;62.30
74364;DHT22;62797;49.740;10.154;2023-06-10T02:22:39;14.50;61.70
74364;DHT22;62797;49.740;10.154;2023-06-10T02:25:07;14.40;63.80
74364;DHT22;62797;49.740;10.154;2023-06-10T02:27:33;14.30;64.10
74364;DHT22;62797;49.740;10.154;2023-06-10T02:29:59;14.40;62.90
74364;DHT22;62797;49.740;10.154;2023-06-10T02:32:25;14.30;62.50
74364;DHT22;62797;49.740;10.154;2023-06-10T02:34:51;14.30;62.20
74364;DHT22;62797;49.740;10.154;2023-06-10T02:37:19;14.20;63.80
74364;DHT22;62797;49.740;10.154;2023-06-10T02:39:46;14.30;64.70
74364;DHT22;62797;49.740;10.154;2023-06-10T02:42:11;14.20;64.20
74364;DHT22;62797;49.740;10.154;2023-06-10T02:44:37;14.30;63.10
74364;DHT22;62797;49.740;10.154;2023-06-10T02:47:04;14.20;62.80
74364;DHT22;62797;49.740;10.154;2023-06-10T02:49:31;14.20;64.90
74364;DHT22;62797;49.740;10.154;2023-06-10T02:51:59;14.20;65.20
74364;DHT22;62797;49.740;10.154;2023-06-10T02:54:25;14.10;64.90
74364;DHT22;62797;49.740;10.154;2023-06-10T02:56:53;14.20;64.00
74364;DHT22;62797;49.740;10.154;2023-06-10T02:59:23;14.10;65.20
74364;DHT22;62797;49.740;10.154;2023-06-10T03:01:49;14.10;65.50
74364;DHT22;62797;49.740;10.154;2023-06-10T03:04:14;14.10;65.60
74364;DHT22;62797;49.740;10.154;2023-06-10T03:06:46;14.10;63.80
74364;DHT22;62797;49.740;10.154;2023-06-10T03:09:18;14.10;63.30
74364;DHT22;62797;49.740;10.154;2023-06-10T03:11:52;14.10;63.50
74364;DHT22;62797;49.740;10.154;2023-06-10T03:14:18;14.10;63.10
74364;DHT22;62797;49.740;10.154;2023-06-10T03:16:44;14.00;63.90
74364;DHT22;62797;49.740;10.154;2023-06-10T03:19:11;14.00;64.70
74364;DHT22;62797;49.740;10.154;2023-06-10T03:21:44;13.90;65.40
74364;DHT22;62797;49.740;10.154;2023-06-10T03:24:11;14.00;64.90
74364;DHT22;62797;49.740;10.154;2023-06-10T03:26:37;14.00;66.20
74364;DHT22;62797;49.740;10.154;2023-06-10T03:29:04;14.00;65.50
74364;DHT22;62797;49.740;10.154;2023-06-10T03:31:30;13.90;66.00
74364;DHT22;62797;49.740;10.154;2023-06-10T03:33:56;13.90;66.10
74364;DHT22;62797;49.740;10.154;2023-06-10T03:36:24;14.00;66.60
74364;DHT22;62797;49.740;10.154;2023-06-10T03:38:54;13.90;67.30
74364;DHT22;62797;49.740;10.154;2023-06-10T03:41:22;14.00;67.10
74364;DHT22;62797;49.740;10.154;2023-06-10T03:43:50;14.00;66.20
74364;DHT22;62797;49.740;10.154;2023-06-10T03:46:16;14.00;65.90
74364;DHT22;62797;49.740;10.154;2023-06-10T03:48:44;14.00;66.60
74364;DHT22;62797;49.740;10.154;2023-06-10T03:51:09;14.00;67.50
74364;DHT22;62797;49.740;10.154;2023-06-10T03:53:35;14.10;67.60
74364;DHT22;62797;49.740;10.154;2023-06-10T03:56:01;14.10;65.50
74364;DHT22;62797;49.740;10.154;2023-06-10T03:58:27;14.10;65.10
74364;DHT22;62797;49.740;10.154;2023-06-10T04:00:53;14.10;65.40
74364;DHT22;62797;49.740;10.154;2023-06-10T04:03:28;14.10;65.70
74364;DHT22;62797;49.740;10.154;2023-06-10T04:05:54;14.10;64.20
74364;DHT22;62797;49.740;10.154;2023-06-10T04:08:20;14.10;64.90
74364;DHT22;62797;49.740;10.154;2023-06-10T04:10:46;14.10;66.80
74364;DHT22;62797;49.740;10.154;2023-06-10T04:13:12;14.10;67.60
74364;DHT22;62797;49.740;10.154;2023-06-10T04:15:45;14.10;68.50
74364;DHT22;62797;49.740;10.154;2023-06-10T04:18:14;14.20;66.80
74364;DHT22;62797;49.740;10.154;2023-06-10T04:20:43;14.20;67.00
74364;DHT22;62797;49.740;10.154;2023-06-10T04:23:10;14.20;67.70
74364;DHT22;62797;49.740;10.154;2023-06-10T04:25:37;14.20;67.70
74364;DHT22;62797;49.740;10.154;2023-06-10T04:28:03;14.20;67.90
74364;DHT22;62797;49.740;10.154;2023-06-10T04:30:30;14.20;68.80
74364;DHT22;62797;49.740;10.154;2023-06-10T04:32:57;14.20;69.20
74364;DHT22;62797;49.740;10.154;2023-06-10T04:35:23;14.30;68.30
74364;DHT22;62797;49.740;10.154;2023-06-10T04:37:49;14.40;67.20
74364;DHT22;62797;49.740;10.154;2023-06-10T04:40:15;14.50;66.70
74364;DHT22;62797;49.740;10.154;2023-06-10T04:42:42;14.60;67.50
74364;DHT22;62797;49.740;10.154;2023-06-10T04:45:09;14.60;67.90
74364;DHT22;62797;49.740;10.154;2023-06-10T04:47:35;14.60;67.10
74364;DHT22;62797;49.740;10.154;2023-06-10T04:50:01;14.80;66.00
74364;DHT22;62797;49.740;10.154;2023-06-10T04:52:28;14.80;66.80
74364;DHT22;62797;49.740;10.154;2023-06-10T04:54:54;14.80;65.80
74364;DHT22;62797;49.740;10.154;2023-06-10T04:57:20;14.90;65.70
74364;DHT22;62797;49.740;10.154;2023-06-10T04:59:47;14.90;67.50
74364;DHT22;62797;49.740;10.154;2023-06-10T05:02:13;15.00;67.70
74364;DHT22;62797;49.740;10.154;2023-06-10T05:04:39;15.00;68.80
74364;DHT22;62797;49.740;10.154;2023-06-10T05:07:05;15.10;68.20
74364;DHT22;62797;49.740;10.154;2023-06-10T05:09:31;15.10;68.20
74364;DHT22;62797;49.740;10.154;2023-06-10T05:11:57;15.30;67.70
74364;DHT22;62797;49.740;10.154;2023-06-10T05:14:22;15.30;68.30
74364;DHT22;62797;49.740;10.154;2023-06-10T05:16:48;15.40;66.70
74364;DHT22;62797;49.740;10.154;2023-06-10T05:19:14;15.50;66.50
74364;DHT22;62797;49.740;10.154;2023-06-10T05:21:41;15.50;69.50
74364;DHT22;62797;49.740;10.154;2023-06-10T05:24:07;15.50;67.20
74364;DHT22;62797;49.740;10.154;2023-06-10T05:26:33;15.70;65.00
74364;DHT22;62797;49.740;10.154;2023-06-10T05:29:03;15.80;65.60
74364;DHT22;62797;49.740;10.154;2023-06-10T05:31:29;15.90;65.80
74364;DHT22;62797;49.740;10.154;2023-06-10T05:33:55;15.90;67.10
74364;DHT22;62797;49.740;10.154;2023-06-10T05:36:20;16.00;66.60
74364;DHT22;62797;49.740;10.154;2023-06-10T05:38:46;16.10;67.80
74364;DHT22;62797;49.740;10.154;2023-06-10T05:41:12;16.20;65.70
74364;DHT22;62797;49.740;10.154;2023-06-10T05:43:38;16.30;64.80
74364;DHT22;62797;49.740;10.154;2023-06-10T05:46:03;16.30;66.10
74364;DHT22;62797;49.740;10.154;2023-06-10T05:48:29;16.40;65.90
74364;DHT22;62797;49.740;10.154;2023-06-10T05:50:55;16.60;63.80
74364;DHT22;62797;49.740;10.154;2023-06-10T05:53:21;16.70;61.40
74364;DHT22;62797;49.740;10.154;2023-06-10T05:55:46;16.90;60.00
74364;DHT22;62797;49.740;10.154;2023-06-10T05:58:14;17.00;59.30
74364;DHT22;62797;49.740;10.154;2023-06-10T06:00:41;17.20;58.00
74364;DHT22;62797;49.740;10.154;2023-06-10T06:03:08;17.30;58.80
74364;DHT22;62797;49.740;10.154;2023-06-10T06:05:34;17.40;56.40
74364;DHT22;62797;49.740;10.154;2023-06-10T06:08:04;17.50;56.60
74364;DHT22;62797;49.740;10.154;2023-06-10T06:10:30;17.60;56.70
74364;DHT22;62797;49.740;10.154;2023-06-10T06:12:56;17.70;54.80
74364;DHT22;62797;49.740;10.154;2023-06-10T06:15:22;17.80;53.80
74364;DHT22;62797;49.740;10.154;2023-06-10T06:17:48;17.90;52.60
74364;DHT22;62797;49.740;10.154;2023-06-10T06:20:14;18.00;52.70
74364;DHT22;62797;49.740;10.154;2023-06-10T06:22:42;18.10;50.60
74364;DHT22;62797;49.740;10.154;2023-06-10T06:25:08;18.20;50.60
74364;DHT22;62797;49.740;10.154;2023-06-10T06:27:34;18.30;50.50
74364;DHT22;62797;49.740;10.154;2023-06-10T06:29:59;18.40;50.00
74364;DHT22;62797;49.740;10.154;2023-06-10T06:32:25;18.60;50.30
74364;DHT22;62797;49.740;10.154;2023-06-10T06:34:53;18.70;49.70
74364;DHT22;62797;49.740;10.154;2023-06-10T06:37:23;18.80;48.60
74364;DHT22;62797;49.740;10.154;2023-06-10T06:39:54;18.80;47.00
74364;DHT22;62797;49.740;10.154;2023-06-10T06:42:20;18.90;46.30
74364;DHT22;62797;49.740;10.154;2023-06-10T06:45:00;19.00;45.80
74364;DHT22;62797;49.740;10.154;2023-06-10T06:47:26;19.20;44.80
74364;DHT22;62797;49.740;10.154;2023-06-10T06:49:52;19.30;44.40
74364;DHT22;62797;49.740;10.154;2023-06-10T06:52:18;19.30;45.20
74364;DHT22;62797;49.740;10.154;2023-06-10T06:54:44;19.40;42.90
74364;DHT22;62797;49.740;10.154;2023-06-10T06:57:10;19.50;42.40
74364;DHT22;62797;49.740;10.154;2023-06-10T06:59:36;19.60;42.70
74364;DHT22;62797;49.740;10.154;2023-06-10T07:02:02;19.70;41.60
74364;DHT22;62797;49.740;10.154;2023-06-10T07:04:28;19.80;41.20
74364;DHT22;62797;49.740;10.154;2023-06-10T07:06:54;19.90;40.50
74364;DHT22;62797;49.740;10.154;2023-06-10T07:09:20;19.90;40.80
74364;DHT22;62797;49.740;10.154;2023-06-10T07:11:46;20.10;39.60
74364;DHT22;62797;49.740;10.154;2023-06-10T07:14:11;20.20;38.30
74364;DHT22;62797;49.740;10.154;2023-06-10T07:16:37;20.30;38.50
74364;DHT22;62797;49.740;10.154;2023-06-10T07:19:03;20.40;39.00
74364;DHT22;62797;49.740;10.154;2023-06-10T07:21:30;20.50;39.10
74364;DHT22;62797;49.740;10.154;2023-06-10T07:23:56;20.60;38.70
74364;DHT22;62797;49.740;10.154;2023-06-10T07:26:24;20.70;38.70
74364;DHT22;62797;49.740;10.154;2023-06-10T07:28:51;20.80;37.70
74364;DHT22;62797;49.740;10.154;2023-06-10T07:31:17;20.90;38.10
74364;DHT22;62797;49.740;10.154;2023-06-10T07:33:43;21.00;37.60
74364;DHT22;62797;49.740;10.154;2023-06-10T07:36:11;21.10;36.90
74364;DHT22;62797;49.740;10.154;2023-06-10T07:38:37;21.20;36.70
74364;DHT22;62797;49.740;10.154;2023-06-10T07:41:02;21.30;36.20
74364;DHT22;62797;49.740;10.154;2023-06-10T07:43:28;21.40;35.70
74364;DHT22;62797;49.740;10.154;2023-06-10T07:45:54;21.40;35.30
74364;DHT22;62797;49.740;10.154;2023-06-10T07:48:19;21.50;34.80
74364;DHT22;62797;49.740;10.154;2023-06-10T07:50:45;21.60;35.40
74364;DHT22;62797;49.740;10.154;2023-06-10T07:53:11;21.60;34.10
74364;DHT22;62797;49.740;10.154;2023-06-10T07:55:37;21.80;33.00
74364;DHT22;62797;49.740;10.154;2023-06-10T07:58:03;21.80;33.10
74364;DHT22;62797;49.740;10.154;2023-06-10T08:00:28;21.80;32.50
74364;DHT22;62797;49.740;10.154;2023-06-10T08:02:54;22.00;32.70
74364;DHT22;62797;49.740;10.154;2023-06-10T08:05:21;22.00;31.80
74364;DHT22;62797;49.740;10.154;2023-06-10T08:07:47;22.20;31.60
74364;DHT22;62797;49.740;10.154;2023-06-10T08:10:12;22.40;31.90
74364;DHT22;62797;49.740;10.154;2023-06-10T08:12:38;22.50;29.70
74364;DHT22;62797;49.740;10.154;2023-06-10T08:15:04;22.60;29.50
74364;DHT22;62797;49.740;10.154;2023-06-10T08:17:30;22.80;28.50
74364;DHT22;62797;49.740;10.154;2023-06-10T08:19:56;22.80;28.40
74364;DHT22;62797;49.740;10.154;2023-06-10T08:22:22;23.00;28.20
74364;DHT22;62797;49.740;10.154;2023-06-10T08:24:48;23.20;27.30
74364;DHT22;62797;49.740;10.154;2023-06-10T08:27:14;23.30;26.20
74364;DHT22;62797;49.740;10.154;2023-06-10T08:29:40;23.30;26.20
74364;DHT22;62797;49.740;10.154;2023-06-10T08:32:06;23.50;25.60
74364;DHT22;62797;49.740;10.154;2023-06-10T08:34:35;23.50;24.90
74364;DHT22;62797;49.740;10.154;2023-06-10T08:37:01;23.70;24.60
74364;DHT22;62797;49.740;10.154;2023-06-10T08:39:27;23.80;25.20
74364;DHT22;62797;49.740;10.154;2023-06-10T08:44:36;24.00;23.20
74364;DHT22;62797;49.740;10.154;2023-06-10T08:47:14;24.10;23.30
74364;DHT22;62797;49.740;10.154;2023-06-10T08:49:45;24.20;22.10
74364;DHT22;62797;49.740;10.154;2023-06-10T08:52:16;24.20;23.10
74364;DHT22;62797;49.740;10.154;2023-06-10T08:54:52;24.20;22.50
74364;DHT22;62797;49.740;10.154;2023-06-10T08:57:22;24.20;22.70
74364;DHT22;62797;49.740;10.154;2023-06-10T08:59:55;24.40;21.90
74364;DHT22;62797;49.740;10.154;2023-06-10T09:02:28;24.40;22.60
74364;DHT22;62797;49.740;10.154;2023-06-10T09:04:58;24.40;22.50
74364;DHT22;62797;49.740;10.154;2023-06-10T09:07:30;24.50;21.90
74364;DHT22;62797;49.740;10.154;2023-06-10T09:10:02;24.70;21.60
74364;DHT22;62797;49.740;10.154;2023-06-10T09:12:33;24.80;20.30
74364;DHT22;62797;49.740;10.154;2023-06-10T09:15:01;24.90;21.30
74364;DHT22;62797;49.740;10.154;2023-06-10T09:17:28;25.00;21.70
74364;DHT22;62797;49.740;10.154;2023-06-10T09:19:54;25.10;21.10
74364;DHT22;62797;49.740;10.154;2023-06-10T09:22:23;25.20;20.60
74364;DHT22;62797;49.740;10.154;2023-06-10T09:24:50;25.30;20.20
74364;DHT22;62797;49.740;10.154;2023-06-10T09:27:16;25.40;20.30
74364;DHT22;62797;49.740;10.154;2023-06-10T09:29:51;25.50;19.30
74364;DHT22;62797;49.740;10.154;2023-06-10T09:32:21;25.80;19.90
74364;DHT22;62797;49.740;10.154;2023-06-10T09:34:48;26.30;19.00
74364;DHT22;62797;49.740;10.154;2023-06-10T09:37:20;26.80;18.10
74364;DHT22;62797;49.740;10.154;2023-06-10T09:40:03;27.40;16.60
74364;DHT22;62797;49.740;10.154;2023-06-10T09:42:35;27.80;16.10
74364;DHT22;62797;49.740;10.154;2023-06-10T09:45:05;28.10;15.40
74364;DHT22;62797;49.740;10.154;2023-06-10T09:47:34;28.40;15.80
74364;DHT22;62797;49.740;10.154;2023-06-10T09:50:03;28.60;15.60
74364;DHT22;62797;49.740;10.154;2023-06-10T09:52:33;28.80;14.90
74364;DHT22;62797;49.740;10.154;2023-06-10T09:55:00;28.90;13.40
74364;DHT22;62797;49.740;10.154;2023-06-10T09:57:33;29.10;13.80
74364;DHT22;62797;49.740;10.154;2023-06-10T09:59:59;28.90;13.40
74364;DHT22;62797;49.740;10.154;2023-06-10T10:02:48;29.00;14.20
74364;DHT22;62797;49.740;10.154;2023-06-10T10:05:18;29.00;14.00
74364;DHT22;62797;49.740;10.154;2023-06-10T10:07:47;28.90;13.90
74364;DHT22;62797;49.740;10.154;2023-06-10T10:10:15;29.00;14.10
74364;DHT22;62797;49.740;10.154;2023-06-10T10:12:41;29.00;14.70
74364;DHT22;62797;49.740;10.154;2023-06-10T10:15:11;29.10;14.10
74364;DHT22;62797;49.740;10.154;2023-06-10T10:17:44;29.30;12.80
74364;DHT22;62797;49.740;10.154;2023-06-10T10:20:14;29.40;13.20
74364;DHT22;62797;49.740;10.154;2023-06-10T10:22:43;29.40;13.70
74364;DHT22;62797;49.740;10.154;2023-06-10T10:25:15;29.50;13.40
74364;DHT22;62797;49.740;10.154;2023-06-10T10:27:49;29.50;13.60
74364;DHT22;62797;49.740;10.154;2023-06-10T10:30:20;29.40;13.40
74364;DHT22;62797;49.740;10.154;2023-06-10T10:35:22;28.90;14.00
74364;DHT22;62797;49.740;10.154;2023-06-10T10:37:52;28.90;13.50
74364;DHT22;62797;49.740;10.154;2023-06-10T10:40:20;29.10;13.70
74364;DHT22;62797;49.740;10.154;2023-06-10T10:42:51;29.40;13.00
74364;DHT22;62797;49.740;10.154;2023-06-10T10:45:17;29.60;12.30
74364;DHT22;62797;49.740;10.154;2023-06-10T10:47:43;29.90;12.50
74364;DHT22;62797;49.740;10.154;2023-06-10T10:50:18;30.20;11.40
74364;DHT22;62797;49.740;10.154;2023-06-10T10:53:03;30.40;11.10
74364;DHT22;62797;49.740;10.154;2023-06-10T10:55:29;30.60;10.40
74364;DHT22;62797;49.740;10.154;2023-06-10T10:58:10;30.50;11.10
74364;DHT22;62797;49.740;10.154;2023-06-10T11:00:44;30.60;11.50
74364;DHT22;62797;49.740;10.154;2023-06-10T11:03:14;30.80;10.20
74364;DHT22;62797;49.740;10.154;2023-06-10T11:05:43;30.90;9.70
74364;DHT22;62797;49.740;10.154;2023-06-10T11:08:13;31.00;9.70
74364;DHT22;62797;49.740;10.154;2023-06-10T11:11:02;30.70;10.10
74364;DHT22;62797;49.740;10.154;2023-06-10T11:13:27;30.40;9.70
74364;DHT22;62797;49.740;10.154;2023-06-10T11:15:57;30.40;9.80
74364;DHT22;62797;49.740;10.154;2023-06-10T11:18:25;30.50;10.00
74364;DHT22;62797;49.740;10.154;2023-06-10T11:20:55;30.60;9.70
74364;DHT22;62797;49.740;10.154;2023-06-10T11:31:20;31.30;8.50
74364;DHT22;62797;49.740;10.154;2023-06-10T11:33:55;31.30;8.50
74364;DHT22;62797;49.740;10.154;2023-06-10T11:36:22;31.30;9.00
74364;DHT22;62797;49.740;10.154;2023-06-10T11:38:49;31.20;8.90
74364;DHT22;62797;49.740;10.154;2023-06-10T11:41:15;31.30;9.70
74364;DHT22;62797;49.740;10.154;2023-06-10T11:43:44;31.50;10.20
74364;DHT22;62797;49.740;10.154;2023-06-10T11:46:10;31.70;8.80
74364;DHT22;62797;49.740;10.154;2023-06-10T11:48:36;31.70;8.30
74364;DHT22;62797;49.740;10.154;2023-06-10T11:51:08;31.70;8.50
74364;DHT22;62797;49.740;10.154;2023-06-10T11:53:34;31.70;8.00
74364;DHT22;62797;49.740;10.154;2023-06-10T11:56:01;31.50;8.60
74364;DHT22;62797;49.740;10.154;2023-06-10T11:58:26;31.20;9.70
74364;DHT22;62797;49.740;10.154;2023-06-10T12:00:55;30.80;9.50
74364;DHT22;62797;49.740;10.154;2023-06-10T12:03:24;30.70;9.60
74364;DHT22;62797;49.740;10.154;2023-06-10T12:05:58;30.80;9.40
74364;DHT22;62797;49.740;10.154;2023-06-10T12:08:24;30.80;10.30
74364;DHT22;62797;49.740;10.154;2023-06-10T12:10:50;30.70;10.00
74364;DHT22;62797;49.740;10.154;2023-06-10T12:13:16;30.30;9.80
74364;DHT22;62797;49.740;10.154;2023-06-10T12:15:43;30.20;10.90
74364;DHT22;62797;49.740;10.154;2023-06-10T12:18:19;30.20;11.70
74364;DHT22;62797;49.740;10.154;2023-06-10T12:20:46;30.20;11.20
74364;DHT22;62797;49.740;10.154;2023-06-10T12:23:12;30.00;11.30
74364;DHT22;62797;49.740;10.154;2023-06-10T12:25:39;29.80;11.70
74364;DHT22;62797;49.740;10.154;2023-06-10T12:28:05;29.90;11.70
74364;DHT22;62797;49.740;10.154;2023-06-10T12:30:32;30.20;11.60
74364;DHT22;62797;49.740;10.154;2023-06-10T12:32:58;30.50;10.40
74364;DHT22;62797;49.740;10.154;2023-06-10T12:35:26;30.90;10.50
74364;DHT22;62797;49.740;10.154;2023-06-10T12:37:56;31.30;9.60
74364;DHT22;62797;49.740;10.154;2023-06-10T12:40:30;31.50;9.50
74364;DHT22;62797;49.740;10.154;2023-06-10T12:42:57;31.70;9.50
74364;DHT22;62797;49.740;10.154;2023-06-10T12:45:33;31.70;8.80
74364;DHT22;62797;49.740;10.154;2023-06-10T12:50:49;31.20;9.00
74364;DHT22;62797;49.740;10.154;2023-06-10T12:53:15;30.70;10.40
74364;DHT22;62797;49.740;10.154;2023-06-10T12:55:41;30.50;11.20
74364;DHT22;62797;49.740;10.154;2023-06-10T12:58:07;30.50;11.30
74364;DHT22;62797;49.740;10.154;2023-06-10T13:00:33;30.60;11.10
74364;DHT22;62797;49.740;10.154;2023-06-10T13:03:01;30.80;11.90
74364;DHT22;62797;49.740;10.154;2023-06-10T13:05:28;31.10;10.60
74364;DHT22;62797;49.740;10.154;2023-06-10T13:07:54;31.40;9.30
74364;DHT22;62797;49.740;10.154;2023-06-10T13:10:20;31.50;9.40
74364;DHT22;62797;49.740;10.154;2023-06-10T13:12:46;31.70;9.10
74364;DHT22;62797;49.740;10.154;2023-06-10T13:15:12;32.00;9.30
74364;DHT22;62797;49.740;10.154;2023-06-10T13:17:38;32.30;8.50
74364;DHT22;62797;49.740;10.154;2023-06-10T13:20:06;32.50;7.80
74364;DHT22;62797;49.740;10.154;2023-06-10T13:22:32;32.40;7.80
74364;DHT22;62797;49.740;10.154;2023-06-10T13:24:59;31.90;7.90
74364;DHT22;62797;49.740;10.154;2023-06-10T13:27:25;31.50;8.70
74364;DHT22;62797;49.740;10.154;2023-06-10T13:29:51;31.30;9.60
74364;DHT22;62797;49.740;10.154;2023-06-10T13:32:17;30.90;9.50
74364;DHT22;62797;49.740;10.154;2023-06-10T13:34:42;30.50;10.60
74364;DHT22;62797;49.740;10.154;2023-06-10T13:37:08;30.30;10.80
74364;DHT22;62797;49.740;10.154;2023-06-10T13:39:34;30.30;11.70
74364;DHT22;62797;49.740;10.154;2023-06-10T13:42:00;30.70;9.90
74364;DHT22;62797;49.740;10.154;2023-06-10T13:44:25;31.10;10.70
74364;DHT22;62797;49.740;10.154;2023-06-10T13:46:51;31.30;11.10
74364;DHT22;62797;49.740;10.154;2023-06-10T13:49:17;31.20;9.10
74364;DHT22;62797;49.740;10.154;2023-06-10T13:51:42;30.80;10.60
74364;DHT22;62797;49.740;10.154;2023-06-10T13:54:08;30.80;11.00
74364;DHT22;62797;49.740;10.154;2023-06-10T13:56:34;30.90;9.30
74364;DHT22;62797;49.740;10.154;2023-06-10T13:59:03;31.10;10.80
74364;DHT22;62797;49.740;10.154;2023-06-10T14:01:29;31.50;9.80
74364;DHT22;62797;49.740;10.154;2023-06-10T14:03:55;31.80;9.30
74364;DHT22;62797;49.740;10.154;2023-06-10T14:06:21;32.20;8.90
74364;DHT22;62797;49.740;10.154;2023-06-10T14:08:46;32.50;8.90
74364;DHT22;62797;49.740;10.154;2023-06-10T14:11:12;32.60;8.20
74364;DHT22;62797;49.740;10.154;2023-06-10T14:13:38;32.80;8.50
74364;DHT22;62797;49.740;10.154;2023-06-10T14:16:04;33.00;8.10
74364;DHT22;62797;49.740;10.154;2023-06-10T14:18:30;33.10;8.50
74364;DHT22;62797;49.740;10.154;2023-06-10T14:20:56;33.30;7.60
74364;DHT22;62797;49.740;10.154;2023-06-10T14:23:22;32.90;7.60
74364;DHT22;62797;49.740;10.154;2023-06-10T14:25:48;32.50;9.40
74364;DHT22;62797;49.740;10.154;2023-06-10T14:28:14;32.70;8.10
74364;DHT22;62797;49.740;10.154;2023-06-10T14:30:39;32.90;7.90
74364;DHT22;62797;49.740;10.154;2023-06-10T14:33:05;33.00;6.90
74364;DHT22;62797;49.740;10.154;2023-06-10T14:35:31;33.10;6.80
74364;DHT22;62797;49.740;10.154;2023-06-10T14:37:56;33.40;6.80
74364;DHT22;62797;49.740;10.154;2023-06-10T14:40:22;33.50;6.40
74364;DHT22;62797;49.740;10.154;2023-06-10T14:42:50;33.90;7.90
74364;DHT22;62797;49.740;10.154;2023-06-10T14:45:15;34.40;7.20
74364;DHT22;62797;49.740;10.154;2023-06-10T14:47:41;34.70;6.70
74364;DHT22;62797;49.740;10.154;2023-06-10T14:50:07;34.50;5.80
74364;DHT22;62797;49.740;10.154;2023-06-10T14:52:33;33.50;8.00
74364;DHT22;62797;49.740;10.154;2023-06-10T14:54:58;32.50;10.20
74364;DHT22;62797;49.740;10.154;2023-06-10T14:57:24;31.70;12.40
74364;DHT22;62797;49.740;10.154;2023-06-10T14:59:50;30.70;13.40
74364;DHT22;62797;49.740;10.154;2023-06-10T15:02:16;29.90;14.50
74364;DHT22;62797;49.740;10.154;2023-06-10T15:04:42;29.30;14.80
74364;DHT22;62797;49.740;10.154;2023-06-10T15:07:07;28.80;14.80
74364;DHT22;62797;49.740;10.154;2023-06-10T15:09:33;28.20;21.30
74364;DHT22;62797;49.740;10.154;2023-06-10T15:11:59;27.20;26.10
74364;DHT22;62797;49.740;10.154;2023-06-10T15:14:25;26.00;30.00
74364;DHT22;62797;49.740;10.154;2023-06-10T15:16:51;25.10;32.90
74364;DHT22;62797;49.740;10.154;2023-06-10T15:19:17;24.50;38.00
74364;DHT22;62797;49.740;10.154;2023-06-10T15:21:43;24.20;41.50
74364;DHT22;62797;49.740;10.154;2023-06-10T15:24:09;24.10;42.00
74364;DHT22;62797;49.740;10.154;2023-06-10T15:26:35;23.90;38.50
74364;DHT22;62797;49.740;10.154;2023-06-10T15:29:01;23.90;43.50
74364;DHT22;62797;49.740;10.154;2023-06-10T15:31:31;23.90;38.80
74364;DHT22;62797;49.740;10.154;2023-06-10T15:33:59;23.90;39.60
74364;DHT22;62797;49.740;10.154;2023-06-10T15:36:25;23.90;38.10
74364;DHT22;62797;49.740;10.154;2023-06-10T15:38:51;23.90;39.00